• vieta
  • image
  • image
  • image

Šiandien

Trečiadienis, 23 Liepa 2014

Orų prognozė

Šiauliai 25 °C
   

Orų prognozė aviacijai

[source: ADDS]
METAR
EYSA 231050Z 08009KT 030V130 CAVOK 25/12 Q1022 NOSIG =
TAF
TAF EYSA 231100Z 2312/2321 05010KT CAVOK =
SR / SS: 02:22 / 18:46 UTC (EYSA 2014-07-23)

Lankytojai

Mes turime 5 svečius online

tic logo lt